OIGG  Sardar-e-Jangal  Airport

Rasht, Iran

Add Bookmark
ICAO OIGG
IATA RAS
Type Airport
Status Operational
Latitude
37° 19' 23" N
37.323333
Longitude
49° 37' 4" E
49.617778
Local (GMT +4.5 ) UTC
Aug 27, 2016 03:49 am Aug 26, 2016 23:19
Sunrise-Sunset Local UTC
Begin Civil Twilight 06:10 am 01:40
Sunrise 06:37 am 02:07
Sunset 07:48 pm 15:18
End Civil Twilight 08:15 pm 15:45
VFR
VFR
MVFR
MVFR
IFR
IFR
LIFR
LIFR
Unknown
Unavailable

Current Weather

METAR Observed IFR
OIGG 262300Z 00000KT 4000 BR NSC 23/21 Q1012 Fri, Aug 26, 2016 @ 23:00 UTC
(19 Minutes ago)
Instrument Flight Rules
Wind Visibility Conditions
Calm 4,007 m
  • Mist
Temperatures Readings Precipitation
Current Temp
23°C
73°F
Dewpoint
21°C
70°F
Humidity 89%
Altimeter 29.88" Hg
Sea Level Pressure 1,012 mb
None Recorded
-
-

CheckWX.com is intended as a tool to help pilots better visualize weather data. It is not intended as a substitute for an official weather briefing obtained from a Flight Service Station. CheckWX.com does not meet the FAA requirements for an official pre-flight weather briefing. Therefore, it's important that pilots still call and obtain an official FSS pre-flight weather briefing.

© 2007-2016 CheckWX.com
23:19:38 UTC